createdAt,value
2022-10-05T13:05:59.039Z,23.40
2022-10-05T13:08:49.798Z,23.44
2022-10-05T13:11:55.945Z,23.31
2022-10-05T13:15:07.789Z,23.41
2022-10-05T13:18:04.960Z,23.23
2022-10-05T13:20:45.448Z,23.26
2022-10-05T13:23:25.894Z,23.25
2022-10-05T13:26:11.445Z,23.42
2022-10-05T13:29:11.060Z,23.54
2022-10-05T13:31:46.152Z,23.20
2022-10-05T13:34:32.140Z,23.47
2022-10-05T13:37:33.876Z,23.65
2022-10-05T13:40:06.673Z,23.81
2022-10-05T13:42:52.720Z,23.87
2022-10-05T13:45:30.055Z,23.78
2022-10-05T13:48:34.496Z,23.84
2022-10-05T13:51:59.209Z,24.03
2022-10-05T13:54:50.969Z,23.98
2022-10-05T13:57:51.650Z,24.18
2022-10-05T14:00:26.811Z,23.83
2022-10-05T14:02:56.828Z,23.47
2022-10-05T14:05:27.002Z,23.53
2022-10-05T14:08:02.607Z,23.60
2022-10-05T14:10:42.051Z,23.59
2022-10-05T14:13:23.318Z,23.62
2022-10-05T14:16:01.754Z,23.81
2022-10-05T14:18:33.494Z,23.73
2022-10-05T14:21:08.937Z,23.39
2022-10-05T14:23:35.932Z,23.66
2022-10-05T14:26:31.556Z,23.66
2022-10-05T14:28:58.312Z,23.80
2022-10-05T14:31:51.267Z,23.81
2022-10-05T14:34:32.822Z,23.90
2022-10-05T14:37:05.048Z,23.62
2022-10-05T14:39:34.592Z,23.65
2022-10-05T14:42:15.338Z,23.68
2022-10-05T14:44:42.139Z,23.63
2022-10-05T14:47:22.903Z,23.62
2022-10-05T14:50:15.057Z,23.62
2022-10-05T14:52:51.625Z,23.49
2022-10-05T14:55:37.833Z,23.33
2022-10-05T14:58:28.053Z,23.26
2022-10-05T15:01:13.703Z,23.15
2022-10-05T15:04:03.901Z,23.20
2022-10-05T15:07:03.297Z,23.13
2022-10-05T15:10:22.597Z,23.07
2022-10-05T15:12:50.475Z,23.07
2022-10-05T15:15:38.643Z,23.05
2022-10-05T15:18:31.772Z,23.02
2022-10-05T15:21:34.129Z,22.95
2022-10-05T15:24:07.809Z,22.87
2022-10-05T15:26:43.478Z,22.85
2022-10-05T15:29:36.242Z,22.89
2022-10-05T15:32:24.829Z,22.85
2022-10-05T15:35:28.015Z,22.77
2022-10-05T15:38:27.479Z,22.72
2022-10-05T15:41:06.203Z,22.64
2022-10-05T15:43:58.576Z,22.58
2022-10-05T15:46:35.879Z,22.58
2022-10-05T15:49:38.286Z,22.55
2022-10-05T15:52:07.881Z,22.54
2022-10-05T15:55:06.954Z,22.53
2022-10-05T15:58:01.802Z,22.48
2022-10-05T16:00:30.258Z,22.39
2022-10-05T16:03:18.228Z,22.32
2022-10-05T16:06:08.833Z,22.22
2022-10-05T16:09:25.807Z,22.14
2022-10-05T16:12:18.886Z,22.16
2022-10-05T16:14:54.505Z,22.07
2022-10-05T16:17:59.473Z,22.02
2022-10-05T16:21:04.768Z,21.98
2022-10-05T16:24:18.845Z,21.89
2022-10-05T16:26:59.732Z,21.82
2022-10-05T16:29:54.310Z,21.76
2022-10-05T16:32:30.139Z,21.67
2022-10-05T16:34:59.376Z,21.63
2022-10-05T16:37:50.101Z,21.58
2022-10-05T16:40:41.508Z,21.48
2022-10-05T16:43:26.491Z,21.44
2022-10-05T16:46:19.121Z,21.39
2022-10-05T16:48:54.166Z,21.35
2022-10-05T16:51:43.733Z,21.30
2022-10-05T16:54:23.857Z,21.20
2022-10-05T16:56:59.600Z,21.19
2022-10-05T17:00:01.787Z,21.13
2022-10-05T17:03:06.283Z,21.11
2022-10-05T17:06:20.729Z,21.08
2022-10-05T17:09:12.554Z,21.01
2022-10-05T17:11:57.333Z,20.97
2022-10-05T17:14:54.462Z,20.93
2022-10-05T17:17:27.412Z,20.90
2022-10-05T17:20:12.984Z,20.86
2022-10-05T17:22:51.137Z,20.75
2022-10-05T17:25:24.239Z,20.60
2022-10-05T17:28:15.084Z,20.51
2022-10-05T17:31:13.035Z,20.42
2022-10-05T17:34:26.335Z,20.35
2022-10-05T17:37:17.462Z,20.34
2022-10-05T17:39:52.451Z,20.32
2022-10-05T17:42:40.275Z,20.22
2022-10-05T17:45:11.971Z,20.17
2022-10-05T17:47:57.855Z,20.00
2022-10-05T17:51:02.986Z,19.94
2022-10-05T17:54:04.493Z,19.89
2022-10-05T17:56:54.400Z,19.92
2022-10-05T17:59:44.734Z,19.91
2022-10-05T18:02:40.627Z,19.88
2022-10-05T18:05:12.555Z,19.89
2022-10-05T18:07:40.773Z,19.84
2022-10-05T18:10:11.726Z,19.78
2022-10-05T18:13:04.648Z,19.74
2022-10-05T18:15:31.367Z,19.69
2022-10-05T18:18:20.067Z,19.66
2022-10-05T18:21:29.856Z,19.53
2022-10-05T18:23:59.673Z,19.49
2022-10-05T18:26:59.441Z,19.41
2022-10-05T18:30:03.300Z,19.33
2022-10-05T18:32:56.016Z,19.18
2022-10-05T18:35:56.880Z,18.93
2022-10-05T18:38:52.912Z,18.81
2022-10-05T18:41:46.346Z,18.73
2022-10-05T18:44:35.212Z,18.68
2022-10-05T18:47:33.668Z,18.62
2022-10-05T18:50:18.716Z,18.58
2022-10-05T18:53:09.997Z,18.48
2022-10-05T18:55:45.748Z,18.47
2022-10-05T18:58:22.452Z,18.41
2022-10-05T19:01:05.390Z,18.38
2022-10-05T19:03:49.573Z,18.44
2022-10-05T19:06:30.014Z,18.37
2022-10-05T19:09:24.126Z,18.35
2022-10-05T19:12:05.357Z,18.34
2022-10-05T19:14:41.498Z,18.26
2022-10-05T19:17:10.755Z,18.21
2022-10-05T19:19:57.586Z,18.05
2022-10-05T19:22:45.892Z,17.90
2022-10-05T19:25:39.479Z,17.82
2022-10-05T19:28:23.094Z,17.74
2022-10-05T19:31:11.720Z,17.64
2022-10-05T19:34:16.603Z,17.60
2022-10-05T19:36:49.268Z,17.54
2022-10-05T19:39:31.165Z,17.52
2022-10-05T19:42:22.437Z,17.47
2022-10-05T19:45:15.163Z,17.35
2022-10-05T19:48:07.681Z,17.28
2022-10-05T19:50:38.603Z,17.24
2022-10-05T19:53:14.021Z,17.16
2022-10-05T19:55:43.787Z,17.12
2022-10-05T19:58:28.654Z,17.14
2022-10-05T20:00:55.601Z,17.14
2022-10-05T20:03:29.275Z,17.18
2022-10-05T20:06:08.895Z,17.11
2022-10-05T20:08:43.863Z,17.13
2022-10-05T20:11:12.003Z,17.10
2022-10-05T20:13:47.419Z,16.97
2022-10-05T20:16:35.587Z,17.06
2022-10-05T20:19:34.894Z,17.09
2022-10-05T20:22:35.012Z,17.13
2022-10-05T20:25:29.214Z,17.13
2022-10-05T20:27:57.076Z,17.15
2022-10-05T20:30:27.493Z,17.12
2022-10-05T20:32:58.255Z,17.07
2022-10-05T20:35:27.870Z,17.05
2022-10-05T20:37:59.506Z,16.99
2022-10-05T20:40:29.073Z,16.93
2022-10-05T20:42:56.829Z,16.87
2022-10-05T20:45:23.538Z,16.81
2022-10-05T20:47:51.026Z,16.74
2022-10-05T20:50:17.821Z,16.71
2022-10-05T20:52:44.626Z,16.69
2022-10-05T20:55:11.960Z,16.66
2022-10-05T20:57:42.318Z,16.55
2022-10-05T21:00:12.962Z,16.60
2022-10-05T21:02:39.611Z,16.49
2022-10-05T21:05:07.685Z,16.58
2022-10-05T21:07:35.018Z,16.60
2022-10-05T21:10:03.873Z,16.60
2022-10-05T21:12:30.705Z,16.53
2022-10-05T21:14:57.518Z,16.47
2022-10-05T21:17:24.236Z,16.36
2022-10-05T21:19:52.586Z,16.38
2022-10-05T21:22:19.479Z,16.40
2022-10-05T21:24:46.028Z,16.36
2022-10-05T21:27:12.621Z,16.31
2022-10-05T21:29:41.106Z,16.27
2022-10-05T21:32:12.039Z,16.27
2022-10-05T21:34:39.784Z,16.19
2022-10-05T21:37:08.085Z,16.24
2022-10-05T21:39:35.445Z,16.25
2022-10-05T21:42:02.286Z,16.28
2022-10-05T21:44:28.799Z,16.26
2022-10-05T21:46:56.567Z,16.31
2022-10-05T21:49:23.955Z,16.17
2022-10-05T21:52:00.684Z,16.20
2022-10-05T21:54:28.668Z,16.28
2022-10-05T21:56:57.487Z,16.27
2022-10-05T21:59:26.884Z,16.31
2022-10-05T22:01:54.160Z,16.16
2022-10-05T22:04:20.921Z,16.26
2022-10-05T22:06:49.082Z,16.18
2022-10-05T22:09:15.665Z,16.19
2022-10-05T22:11:42.439Z,16.20
2022-10-05T22:14:09.169Z,16.22
2022-10-05T22:16:38.678Z,16.22
2022-10-05T22:19:10.740Z,16.24
2022-10-05T22:21:41.537Z,16.19
2022-10-05T22:24:11.393Z,16.20
2022-10-05T22:26:41.977Z,16.18
2022-10-05T22:29:09.658Z,16.12
2022-10-05T22:31:36.827Z,16.13
2022-10-05T22:34:03.486Z,16.07
2022-10-05T22:36:30.188Z,16.06
2022-10-05T22:38:56.879Z,16.06
2022-10-05T22:41:23.691Z,16.04
2022-10-05T22:43:51.292Z,15.98
2022-10-05T22:46:18.641Z,15.95
2022-10-05T22:48:45.266Z,15.96
2022-10-05T22:51:12.540Z,15.91
2022-10-05T22:53:39.189Z,15.83
2022-10-05T22:56:08.373Z,15.88
2022-10-05T22:58:35.549Z,15.85
2022-10-05T23:01:04.830Z,15.84
2022-10-05T23:03:32.548Z,15.88
2022-10-05T23:06:14.069Z,15.81
2022-10-05T23:08:41.808Z,15.75
2022-10-05T23:11:16.762Z,15.73
2022-10-05T23:13:44.005Z,15.68
2022-10-05T23:16:16.697Z,15.71
2022-10-05T23:18:44.649Z,15.69
2022-10-05T23:21:12.091Z,15.63
2022-10-05T23:23:40.711Z,15.68
2022-10-05T23:26:09.840Z,15.65
2022-10-05T23:28:38.391Z,15.66
2022-10-05T23:31:07.349Z,15.64
2022-10-05T23:33:34.871Z,15.66
2022-10-05T23:36:04.810Z,15.66
2022-10-05T23:38:32.190Z,15.60
2022-10-05T23:40:59.774Z,15.63
2022-10-05T23:43:27.316Z,15.58
2022-10-05T23:45:54.073Z,15.56
2022-10-05T23:48:21.420Z,15.54
2022-10-05T23:50:49.500Z,15.51
2022-10-05T23:53:17.278Z,15.51
2022-10-05T23:55:43.871Z,15.49
2022-10-05T23:58:11.093Z,15.51
